Time;durP1;ratioP1;P1;durP2;ratioP2;P2;SDS_P1;SDS_P2;PMS_P1;PMS_P2;Temp;Humidity;BMP_temperature;BMP_pressure;BME280_temperature;BME280_humidity;BME280_pressure;Samples;Min_cycle;Max_cycle;Signal;HPM_P1;HPM_P2
2023/01/26 00:02:17;;;;;;;9.27;6.35;;;15.30;54.70;;;;;;5101518;28;20016;-65
2023/01/26 00:04:43;;;;;;;10.52;6.88;;;15.20;54.80;;;;;;5101533;28;20108;-65
2023/01/26 00:07:09;;;;;;;9.88;6.65;;;15.10;54.90;;;;;;5101265;28;20344;-65
2023/01/26 00:09:35;;;;;;;9.48;6.55;;;15.10;55.00;;;;;;5101442;28;20351;-65
2023/01/26 00:12:01;;;;;;;9.48;6.55;;;15.00;55.10;;;;;;5101418;28;20245;-64
2023/01/26 00:14:26;;;;;;;9.48;6.60;;;15.00;55.30;;;;;;5101473;28;20015;-65
2023/01/26 00:16:53;;;;;;;9.02;6.57;;;14.90;55.30;;;;;;5101319;28;20035;-66
2023/01/26 00:19:19;;;;;;;10.32;6.93;;;14.90;55.40;;;;;;5101246;28;20099;-64
2023/01/26 00:21:44;;;;;;;10.65;6.93;;;14.90;55.50;;;;;;5101172;28;20102;-64
2023/01/26 00:24:10;;;;;;;9.80;6.70;;;14.80;55.50;;;;;;5101099;28;20091;-66
2023/01/26 00:26:36;;;;;;;10.73;7.05;;;14.80;55.60;;;;;;5100994;28;20034;-66
2023/01/26 00:29:02;;;;;;;13.88;7.63;;;14.80;55.70;;;;;;5101090;28;20027;-66
2023/01/26 00:31:28;;;;;;;9.35;6.53;;;14.80;55.70;;;;;;5100992;28;20323;-66
2023/01/26 00:33:55;;;;;;;10.50;6.78;;;14.80;55.70;;;;;;5099742;28;20027;-66
2023/01/26 00:36:21;;;;;;;9.85;6.65;;;14.70;55.70;;;;;;5100908;28;20069;-64
2023/01/26 00:38:47;;;;;;;9.43;6.43;;;14.80;55.70;;;;;;5100901;28;20032;-65
2023/01/26 00:42:05;;;;;;;8.73;5.80;;;14.70;55.70;;;;;;5100843;28;20043;-65
2023/01/26 00:43:59;;;;;;;10.20;6.82;;;14.70;55.70;;;;;;5100650;28;20036;-64
2023/01/26 00:46:25;;;;;;;9.68;6.85;;;14.80;55.80;;;;;;5100714;28;20065;-65
2023/01/26 00:48:51;;;;;;;10.27;6.53;;;14.80;55.70;;;;;;5100752;28;20032;-65
2023/01/26 00:51:17;;;;;;;11.30;6.93;;;14.90;55.70;;;;;;5100682;28;20019;-65
2023/01/26 00:53:43;;;;;;;12.68;7.55;;;15.00;55.60;;;;;;5100637;28;20012;-65
2023/01/26 00:56:08;;;;;;;12.23;7.40;;;15.10;55.40;;;;;;5100590;28;20039;-65
2023/01/26 00:58:34;;;;;;;11.05;7.28;;;15.20;55.30;;;;;;5100529;28;20324;-65
2023/01/26 01:01:00;;;;;;;10.27;7.10;;;15.20;55.20;;;;;;5100509;28;20254;-66
2023/01/26 01:03:26;;;;;;;10.43;6.97;;;15.30;55.10;;;;;;5100308;28;20020;-65
2023/01/26 01:05:51;;;;;;;9.98;6.57;;;15.30;54.90;;;;;;5100282;28;20040;-66
2023/01/26 01:08:17;;;;;;;11.32;7.53;;;15.40;54.80;;;;;;5100451;28;20383;-64
2023/01/26 01:10:43;;;;;;;11.32;7.10;;;15.30;54.70;;;;;;5100440;28;20340;-66
2023/01/26 01:13:09;;;;;;;11.52;7.47;;;15.30;54.80;;;;;;5100440;28;20028;-65
2023/01/26 01:15:36;;;;;;;10.48;6.95;;;15.20;54.80;;;;;;5100399;28;20030;-66
2023/01/26 01:18:02;;;;;;;10.23;6.88;;;15.20;54.90;;;;;;5100453;28;20035;-66
2023/01/26 01:20:28;;;;;;;11.10;7.45;;;15.10;55.00;;;;;;5100419;28;20259;-65
2023/01/26 01:22:54;;;;;;;11.02;7.20;;;15.10;55.20;;;;;;5100434;28;20016;-67
2023/01/26 01:25:20;;;;;;;9.35;6.63;;;15.00;55.20;;;;;;5100256;28;20083;-65
2023/01/26 01:27:46;;;;;;;10.05;6.65;;;14.90;55.20;;;;;;5100185;28;20077;-65
2023/01/26 01:30:12;;;;;;;11.82;7.28;;;14.90;55.30;;;;;;5100316;28;20240;-66
2023/01/26 01:32:38;;;;;;;11.52;7.32;;;14.90;55.40;;;;;;5100278;28;20254;-66
2023/01/26 01:35:05;;;;;;;12.77;7.60;;;14.80;55.50;;;;;;5100216;28;20012;-65
2023/01/26 01:37:32;;;;;;;11.07;7.80;;;14.80;55.50;;;;;;5100191;28;20414;-66
2023/01/26 01:39:58;;;;;;;11.45;7.55;;;14.70;55.50;;;;;;5098851;28;20032;-66
2023/01/26 01:42:24;;;;;;;11.65;7.35;;;14.70;55.60;;;;;;5100088;28;20031;-66
2023/01/26 01:45:28;;;;;;;10.32;7.28;;;14.70;55.70;;;;;;5100078;28;20028;-65
2023/01/26 01:47:56;;;;;;;11.45;7.25;;;14.70;55.70;;;;;;5100010;28;20098;-65
2023/01/26 01:50:24;;;;;;;13.25;8.10;;;14.70;55.80;;;;;;5100159;28;20084;-67
2023/01/26 01:52:52;;;;;;;10.35;7.00;;;14.70;55.70;;;;;;5100093;28;20296;-66
2023/01/26 01:55:19;;;;;;;10.77;7.27;;;14.80;55.80;;;;;;5100179;28;20324;-65
2023/01/26 01:57:52;;;;;;;10.88;7.05;;;14.90;55.80;;;;;;5100104;28;20034;-66
2023/01/26 02:00:21;;;;;;;9.88;7.32;;;15.00;55.80;;;;;;5100097;28;20036;-66
2023/01/26 02:03:10;;;;;;;11.77;7.57;;;15.10;55.50;;;;;;5100172;28;20119;-66
2023/01/26 02:06:00;;;;;;;11.95;7.60;;;15.20;55.30;;;;;;5100167;28;20028;-64
2023/01/26 02:08:49;;;;;;;11.40;7.60;;;15.30;55.10;;;;;;5099994;28;20051;-64
2023/01/26 02:11:43;;;;;;;11.32;7.57;;;15.30;55.00;;;;;;5099530;28;20373;-65
2023/01/26 02:14:13;;;;;;;10.27;6.95;;;15.30;54.80;;;;;;5101090;28;20085;-66
2023/01/26 02:16:39;;;;;;;10.95;6.97;;;15.40;54.70;;;;;;5103541;28;20024;-65
2023/01/26 02:19:15;;;;;;;10.90;6.88;;;15.40;54.60;;;;;;5103484;28;20044;-65
2023/01/26 02:21:44;;;;;;;10.93;7.55;;;15.40;54.60;;;;;;5103394;28;20031;-66
2023/01/26 02:24:34;;;;;;;11.60;7.45;;;15.30;54.60;;;;;;5103315;28;20320;-66
2023/01/26 02:27:01;;;;;;;11.82;7.45;;;15.20;54.70;;;;;;5102720;28;20335;-67
2023/01/26 02:29:27;;;;;;;10.80;7.50;;;15.20;54.90;;;;;;5103294;28;20024;-65
2023/01/26 02:31:53;;;;;;;10.23;7.22;;;15.10;54.90;;;;;;5103359;28;20051;-65
2023/01/26 02:34:19;;;;;;;11.40;7.63;;;15.00;55.00;;;;;;5103274;28;20024;-65
2023/01/26 02:36:55;;;;;;;11.75;7.50;;;15.10;55.10;;;;;;5103310;28;20046;-67
2023/01/26 02:39:51;;;;;;;10.68;7.30;;;15.00;55.10;;;;;;5103232;28;20024;-66
2023/01/26 02:45:02;;;;;;;12.63;7.95;;;14.80;55.40;;;;;;5103004;28;20027;-65
2023/01/26 02:47:28;;;;;;;10.48;7.32;;;14.80;55.50;;;;;;5102857;28;20035;-67
2023/01/26 02:49:54;;;;;;;9.70;6.95;;;14.80;55.60;;;;;;5102882;28;20024;-65
2023/01/26 02:52:25;;;;;;;11.02;6.85;;;14.70;55.60;;;;;;5102887;28;20027;-64
2023/01/26 02:57:36;;;;;;;10.57;7.85;;;14.70;55.60;;;;;;5102740;28;20019;-66
2023/01/26 03:00:05;;;;;;;11.90;6.68;;;14.70;55.70;;;;;;5102694;28;20020;-66
2023/01/26 03:02:31;;;;;;;10.48;7.78;;;14.80;55.80;;;;;;5102502;28;20016;-66
2023/01/26 03:04:57;;;;;;;9.80;7.00;;;14.90;55.80;;;;;;5102569;28;20076;-66
2023/01/26 03:07:23;;;;;;;9.70;6.75;;;15.00;55.60;;;;;;5102303;28;20560;-66
2023/01/26 03:09:49;;;;;;;10.63;7.88;;;15.10;55.40;;;;;;5102438;28;20039;-65
2023/01/26 03:12:14;;;;;;;11.40;7.38;;;15.20;55.40;;;;;;5102408;28;20028;-65
2023/01/26 03:14:40;;;;;;;10.30;7.30;;;15.20;55.20;;;;;;5102351;28;20028;-66
2023/01/26 03:17:06;;;;;;;9.73;6.95;;;15.30;55.10;;;;;;5102262;28;20032;-66
2023/01/26 03:27:47;;;;;;;8.70;6.57;;;15.30;54.70;;;;;;5102272;28;20030;-64
2023/01/26 03:30:16;;;;;;;9.63;6.47;;;15.30;54.70;;;;;;5102388;28;20027;-66
2023/01/26 03:32:42;;;;;;;10.48;7.15;;;15.20;54.80;;;;;;5102247;28;20023;-66
2023/01/26 03:35:13;;;;;;;9.52;7.00;;;15.10;54.90;;;;;;5102113;28;20020;-66
2023/01/26 03:37:43;;;;;;;11.02;7.30;;;15.10;55.00;;;;;;5102223;28;20020;-66
2023/01/26 03:56:36;;;;;;;11.70;7.30;;;14.80;55.50;;;;;;5101734;28;20359;-65
2023/01/26 03:59:07;;;;;;;10.35;6.95;;;14.80;55.50;;;;;;5101678;28;20020;-66
2023/01/26 04:09:56;;;;;;;10.43;6.75;;;14.80;55.70;;;;;;5078765;28;20371;-67
2023/01/26 04:12:22;;;;;;;9.77;6.40;;;14.90;55.70;;;;;;5078798;28;20016;-65
2023/01/26 04:23:01;;;;;;;10.45;6.70;;;15.20;55.00;;;;;;5078547;28;20035;-65
2023/01/26 04:25:27;;;;;;;10.38;7.32;;;15.30;55.00;;;;;;5078477;28;20052;-65
2023/01/26 04:27:52;;;;;;;9.93;6.60;;;15.30;54.90;;;;;;5082299;28;20344;-67
2023/01/26 04:30:19;;;;;;;10.20;6.65;;;15.30;54.80;;;;;;5100971;28;20073;-65
2023/01/26 04:32:45;;;;;;;11.75;6.90;;;15.30;54.70;;;;;;5100895;28;20032;-66
2023/01/26 04:35:11;;;;;;;11.40;7.35;;;15.30;54.70;;;;;;5100862;28;20083;-65
2023/01/26 04:37:38;;;;;;;9.50;6.70;;;15.30;54.70;;;;;;5100407;28;20069;-66
2023/01/26 04:40:05;;;;;;;9.57;6.90;;;15.20;54.80;;;;;;5100811;28;20020;-65
2023/01/26 04:42:30;;;;;;;8.32;6.45;;;15.20;54.80;;;;;;5100624;28;20045;-64
2023/01/26 04:44:56;;;;;;;11.15;7.47;;;15.10;54.80;;;;;;5100642;28;20046;-65
2023/01/26 04:47:22;;;;;;;10.40;7.28;;;15.10;54.90;;;;;;5100618;28;20027;-64
2023/01/26 04:49:48;;;;;;;10.27;7.45;;;15.00;55.00;;;;;;5100643;28;20028;-65
2023/01/26 04:52:14;;;;;;;9.73;6.60;;;15.00;55.20;;;;;;5100617;28;20240;-66
2023/01/26 04:54:40;;;;;;;11.07;7.10;;;15.00;55.20;;;;;;5100602;28;20023;-65
2023/01/26 04:57:07;;;;;;;9.27;6.18;;;14.90;55.20;;;;;;5100551;28;20036;-65
2023/01/26 04:59:32;;;;;;;8.65;6.65;;;14.80;55.90;;;;;;5100479;28;20024;-66
2023/01/26 05:01:59;;;;;;;9.30;6.70;;;14.80;55.30;;;;;;5100509;28;20035;-66
2023/01/26 05:04:24;;;;;;;9.73;6.50;;;14.80;55.40;;;;;;5100599;28;20343;-66
2023/01/26 05:06:50;;;;;;;8.60;6.05;;;14.80;55.50;;;;;;5100310;28;20056;-65
2023/01/26 05:09:16;;;;;;;10.27;7.32;;;14.70;55.50;;;;;;5100472;28;20062;-65
2023/01/26 05:11:42;;;;;;;9.57;6.57;;;14.70;55.60;;;;;;5100502;28;20355;-65
2023/01/26 05:14:07;;;;;;;9.85;6.50;;;14.70;55.60;;;;;;5100447;28;20028;-65
2023/01/26 05:16:33;;;;;;;10.13;6.18;;;14.80;55.60;;;;;;5100395;28;20385;-65
2023/01/26 05:18:59;;;;;;;9.32;6.60;;;14.80;55.70;;;;;;5100303;28;20038;-67
2023/01/26 05:21:26;;;;;;;9.48;6.38;;;14.90;55.50;;;;;;5100371;28;20549;-66
2023/01/26 05:23:53;;;;;;;10.73;6.00;;;15.00;55.40;;;;;;5100338;28;20027;-65
2023/01/26 05:26:19;;;;;;;8.18;5.28;;;15.00;55.10;;;;;;5100270;28;20031;-65
2023/01/26 05:28:44;;;;;;;10.00;6.28;;;15.10;55.00;;;;;;5100337;28;20031;-67
2023/01/26 05:31:10;;;;;;;8.50;6.07;;;15.20;54.90;;;;;;5100323;28;20023;-66
2023/01/26 05:33:36;;;;;;;10.02;6.07;;;15.20;54.70;;;;;;5100349;28;20225;-65
2023/01/26 05:36:05;;;;;;;11.48;6.75;;;15.20;54.60;;;;;;5100431;28;20040;-66
2023/01/26 05:38:31;;;;;;;8.52;6.55;;;15.20;54.60;;;;;;5100463;28;20116;-66
2023/01/26 05:40:58;;;;;;;8.82;5.97;;;15.30;54.60;;;;;;5100448;28;20035;-66
2023/01/26 05:43:24;;;;;;;8.65;5.57;;;15.30;54.50;;;;;;5100264;28;20032;-66
2023/01/26 05:45:50;;;;;;;9.63;6.57;;;15.20;54.50;;;;;;5100229;28;20016;-66
2023/01/26 05:48:16;;;;;;;8.82;6.10;;;15.10;54.50;;;;;;5100116;28;20084;-65
2023/01/26 05:50:41;;;;;;;8.80;6.13;;;15.10;54.60;;;;;;5103990;28;20024;-63
2023/01/26 05:53:07;;;;;;;8.30;5.80;;;15.00;54.60;;;;;;5104066;28;20020;-65
2023/01/26 05:55:33;;;;;;;10.05;6.30;;;15.00;54.70;;;;;;5103989;28;20314;-66
2023/01/26 05:57:59;;;;;;;10.50;7.05;;;14.90;55.00;;;;;;5103920;28;20243;-64
2023/01/26 06:00:25;;;;;;;9.05;6.22;;;14.90;55.00;;;;;;5103907;28;20016;-65
2023/01/26 06:02:51;;;;;;;8.88;5.72;;;14.90;55.10;;;;;;5103837;28;20019;-65
2023/01/26 06:05:17;;;;;;;8.00;6.20;;;14.80;55.10;;;;;;5103862;28;20111;-65
2023/01/26 06:07:43;;;;;;;7.93;5.97;;;14.80;55.20;;;;;;5103500;28;20040;-66
2023/01/26 06:10:09;;;;;;;8.68;6.38;;;14.80;55.20;;;;;;5103744;28;20031;-64
2023/01/26 06:12:37;;;;;;;8.00;5.80;;;14.80;55.20;;;;;;5103694;28;20016;-66
2023/01/26 06:15:04;;;;;;;11.63;6.40;;;14.80;55.30;;;;;;5103813;28;20018;-66
2023/01/26 06:17:30;;;;;;;7.57;5.78;;;14.80;55.90;;;;;;5103695;28;20031;-65
2023/01/26 06:19:56;;;;;;;8.70;6.03;;;14.80;55.30;;;;;;5103657;28;20019;-65
2023/01/26 06:22:21;;;;;;;9.65;6.60;;;14.80;55.40;;;;;;5103551;28;20027;-67
2023/01/26 06:24:47;;;;;;;9.60;5.82;;;14.80;55.40;;;;;;5103539;28;20024;-67
2023/01/26 06:27:15;;;;;;;9.15;6.10;;;14.70;55.50;;;;;;5103378;28;20551;-66
2023/01/26 06:29:41;;;;;;;8.70;5.88;;;14.70;55.50;;;;;;5103335;28;20019;-65
2023/01/26 06:32:11;;;;;;;9.45;6.13;;;14.70;55.50;;;;;;5103270;28;20047;-65
2023/01/26 06:34:36;;;;;;;9.13;5.97;;;14.80;55.50;;;;;;5103238;28;20012;-66
2023/01/26 06:37:03;;;;;;;9.23;6.57;;;14.90;55.50;;;;;;5101857;28;20059;-65
2023/01/26 06:39:29;;;;;;;8.48;6.22;;;14.90;55.30;;;;;;5103102;28;20087;-66
2023/01/26 06:41:55;;;;;;;8.55;5.93;;;15.00;55.30;;;;;;5103062;28;20028;-65
2023/01/26 06:44:21;;;;;;;8.38;5.60;;;15.10;55.10;;;;;;5103040;28;20255;-66
2023/01/26 06:46:48;;;;;;;8.35;5.90;;;15.10;54.90;;;;;;5102894;28;20020;-65
2023/01/26 06:49:15;;;;;;;8.40;5.53;;;15.10;54.90;;;;;;5102935;28;20034;-64
2023/01/26 06:51:56;;;;;;;9.27;5.70;;;15.20;54.80;;;;;;5102915;28;20308;-67
2023/01/26 06:54:22;;;;;;;7.40;5.40;;;15.30;54.70;;;;;;5102870;28;20020;-66
2023/01/26 06:56:48;;;;;;;10.15;5.82;;;15.30;54.70;;;;;;5102759;28;20039;-66
2023/01/26 06:59:13;;;;;;;8.57;5.55;;;15.40;54.70;;;;;;5102645;28;20024;-65
2023/01/26 07:01:46;;;;;;;8.25;5.47;;;15.50;54.70;;;;;;5102465;28;20039;-66
2023/01/26 07:04:12;;;;;;;8.18;5.43;;;15.50;54.50;;;;;;5102763;28;20024;-65
2023/01/26 07:06:37;;;;;;;8.70;5.75;;;15.60;54.40;;;;;;5102380;28;20097;-66
2023/01/26 07:09:04;;;;;;;7.78;5.15;;;15.60;54.30;;;;;;5102644;28;20028;-65
2023/01/26 07:11:31;;;;;;;7.40;4.93;;;15.60;54.20;;;;;;5102676;28;20084;-65
2023/01/26 07:13:57;;;;;;;8.48;5.85;;;15.60;54.30;;;;;;5102691;28;20031;-66
2023/01/26 07:16:24;;;;;;;8.18;5.47;;;15.70;54.30;;;;;;5102681;28;20036;-65
2023/01/26 07:18:49;;;;;;;8.20;5.65;;;15.70;54.20;;;;;;5102578;28;20020;-66
2023/01/26 07:21:17;;;;;;;8.30;5.43;;;15.80;54.10;;;;;;5102452;28;20028;-66
2023/01/26 07:23:44;;;;;;;7.35;5.30;;;15.90;54.10;;;;;;5102368;28;20031;-67
2023/01/26 07:26:10;;;;;;;7.90;5.32;;;15.90;54.00;;;;;;5102192;28;20316;-66
2023/01/26 07:28:36;;;;;;;7.65;5.10;;;15.90;54.00;;;;;;5102194;28;20035;-66
2023/01/26 07:31:03;;;;;;;7.78;5.68;;;16.00;53.90;;;;;;5102151;28;20091;-66
2023/01/26 07:33:30;;;;;;;6.82;5.15;;;15.90;54.00;;;;;;5102250;28;20049;-66
2023/01/26 07:35:56;;;;;;;6.85;5.10;;;16.00;54.00;;;;;;5102153;28;20024;-64
2023/01/26 07:38:22;;;;;;;8.18;5.90;;;16.10;53.90;;;;;;5102204;28;20308;-66
2023/01/26 07:40:49;;;;;;;7.47;5.10;;;16.10;53.80;;;;;;5102018;28;20024;-66
2023/01/26 07:43:16;;;;;;;8.27;5.63;;;16.10;53.90;;;;;;5101937;28;20065;-65
2023/01/26 07:45:53;;;;;;;125.28;19.77;;;16.10;53.80;;;;;;5101868;28;20277;-67
2023/01/26 07:48:21;;;;;;;19.77;6.47;;;15.60;47.70;;;;;;5101802;28;20028;-65
2023/01/26 07:50:47;;;;;;;26.27;8.37;;;15.80;53.70;;;;;;5101784;28;20023;-65
2023/01/26 07:53:14;;;;;;;17.55;7.18;;;14.60;47.60;;;;;;5101696;28;20275;-66
2023/01/26 07:55:43;;;;;;;27.73;7.60;;;15.10;53.90;;;;;;5101696;28;20437;-66
2023/01/26 07:58:10;;;;;;;23.88;7.45;;;15.40;54.10;;;;;;5101596;28;20667;-66
2023/01/26 08:00:36;;;;;;;25.15;6.85;;;15.60;53.90;;;;;;5101669;28;20016;-68
2023/01/26 08:03:02;;;;;;;27.55;7.22;;;15.80;53.60;;;;;;5101587;28;20086;-68
2023/01/26 08:05:28;;;;;;;16.88;7.30;;;15.90;53.00;;;;;;5088196;28;20200;-69
2023/01/26 08:07:57;;;;;;;24.88;7.18;;;15.90;53.20;;;;;;5099844;28;20401;-70
2023/01/26 08:10:23;;;;;;;42.00;8.52;;;16.00;53.00;;;;;;5101372;28;20320;-67
2023/01/26 08:12:49;;;;;;;15.65;6.55;;;16.00;53.00;;;;;;5100626;28;20097;-69
2023/01/26 08:15:15;;;;;;;23.55;6.40;;;16.00;52.80;;;;;;5101246;28;20024;-65
2023/01/26 08:17:40;;;;;;;18.10;6.95;;;16.10;52.80;;;;;;5101073;28;20032;-67
2023/01/26 08:20:07;;;;;;;26.15;8.57;;;16.00;52.80;;;;;;5101172;28;20083;-66
2023/01/26 08:22:33;;;;;;;14.50;6.38;;;16.10;53.10;;;;;;5100155;28;20035;-66
2023/01/26 08:25:02;;;;;;;20.67;6.15;;;16.10;52.90;;;;;;5101043;28;20174;-65
2023/01/26 08:27:27;;;;;;;15.45;7.40;;;16.10;53.00;;;;;;5095500;28;20035;-66
2023/01/26 08:29:53;;;;;;;17.25;6.40;;;16.20;53.00;;;;;;5097241;28;20047;-68
2023/01/26 08:32:19;;;;;;;14.82;6.13;;;16.20;53.00;;;;;;5093495;28;20069;-68
2023/01/26 08:34:45;;;;;;;16.70;6.75;;;16.20;53.10;;;;;;5100581;28;20035;-66
2023/01/26 08:37:11;;;;;;;17.50;7.90;;;16.30;53.00;;;;;;5100473;28;20032;-67
2023/01/26 08:39:36;;;;;;;13.05;6.13;;;16.30;53.10;;;;;;5100704;28;20023;-68
2023/01/26 08:42:02;;;;;;;18.70;6.32;;;16.30;52.90;;;;;;5100179;28;20028;-68
2023/01/26 08:44:28;;;;;;;14.77;6.82;;;16.30;53.00;;;;;;5100645;28;20345;-67
2023/01/26 08:46:54;;;;;;;13.15;6.10;;;16.40;52.90;;;;;;5100473;28;20028;-66
2023/01/26 08:49:20;;;;;;;14.05;5.68;;;16.30;52.90;;;;;;5100503;28;20016;-69
2023/01/26 08:51:46;;;;;;;17.80;6.22;;;16.30;52.90;;;;;;5100511;28;20027;-66
2023/01/26 08:54:11;;;;;;;13.23;6.63;;;16.30;52.90;;;;;;5100452;28;20016;-68
2023/01/26 08:56:37;;;;;;;19.08;6.00;;;16.40;53.00;;;;;;5100377;28;20028;-66
2023/01/26 08:59:03;;;;;;;12.52;5.60;;;16.40;53.00;;;;;;5100544;28;20028;-68
2023/01/26 09:01:29;;;;;;;14.27;6.32;;;16.40;52.80;;;;;;5100217;28;20346;-68
2023/01/26 09:03:55;;;;;;;22.63;7.05;;;16.40;52.80;;;;;;5106186;28;20028;-69
2023/01/26 09:06:21;;;;;;;18.92;6.47;;;16.40;52.90;;;;;;5098822;28;20123;-65
2023/01/26 09:08:47;;;;;;;19.15;7.20;;;16.40;52.90;;;;;;5100444;28;20044;-67
2023/01/26 09:11:13;;;;;;;11.48;5.80;;;16.40;52.90;;;;;;5100266;28;20546;-69
2023/01/26 09:13:39;;;;;;;17.02;5.55;;;16.40;53.00;;;;;;5100373;28;20332;-66
2023/01/26 09:16:07;;;;;;;12.55;5.68;;;16.40;53.00;;;;;;5099085;28;20030;-66
2023/01/26 09:18:33;;;;;;;15.35;6.35;;;16.40;52.90;;;;;;5100399;28;20032;-68
2023/01/26 09:21:06;;;;;;;15.15;5.75;;;16.40;52.90;;;;;;5100288;28;20035;-67
2023/01/26 09:23:33;;;;;;;15.82;6.15;;;16.50;53.30;;;;;;5099870;28;20315;-66
2023/01/26 09:26:00;;;;;;;17.25;6.22;;;16.50;52.90;;;;;;5099114;28;20122;-67
2023/01/26 09:28:26;;;;;;;11.55;6.47;;;16.50;52.90;;;;;;5104225;28;20110;-68
2023/01/26 09:30:51;;;;;;;12.52;5.60;;;16.50;53.00;;;;;;5104232;28;20024;-65
2023/01/26 09:33:17;;;;;;;10.70;5.38;;;16.50;53.00;;;;;;5104179;28;20016;-69
2023/01/26 09:35:43;;;;;;;16.88;6.10;;;16.50;53.00;;;;;;5102157;28;20430;-65
2023/01/26 09:38:09;;;;;;;14.70;6.22;;;16.50;52.90;;;;;;5091987;28;20036;-68
2023/01/26 09:40:40;;;;;;;19.40;6.68;;;16.50;53.00;;;;;;5083734;28;20016;-68
2023/01/26 09:43:24;;;;;;;14.57;5.57;;;16.50;53.00;;;;;;5083600;28;20028;-66
2023/01/26 09:46:08;;;;;;;15.98;5.75;;;16.60;52.90;;;;;;5083515;28;20023;-66
2023/01/26 09:48:58;;;;;;;11.30;5.50;;;16.60;52.90;;;;;;5083465;28;20028;-64
2023/01/26 09:51:38;;;;;;;17.55;6.35;;;16.50;53.00;;;;;;5083532;28;20058;-66
2023/01/26 09:54:32;;;;;;;22.80;6.47;;;16.60;53.10;;;;;;5083583;28;20055;-68
2023/01/26 09:57:01;;;;;;;8.57;4.90;;;16.60;53.20;;;;;;5083530;28;20062;-67
2023/01/26 09:59:34;;;;;;;;;;;16.60;53.20;;;;;;5088775;28;20065;-66
2023/01/26 10:02:21;;;;;;;10.13;5.40;;;16.60;53.10;;;;;;5103676;28;19998;-66
2023/01/26 10:04:50;;;;;;;11.50;5.32;;;16.60;53.00;;;;;;5098642;28;20044;-68
2023/01/26 10:07:16;;;;;;;18.92;6.00;;;16.50;52.30;;;;;;5101178;28;20051;-69
2023/01/26 10:09:47;;;;;;;17.23;5.35;;;16.40;53.20;;;;;;5092206;28;20056;-66
2023/01/26 10:12:28;;;;;;;21.70;6.18;;;16.40;53.60;;;;;;5084922;28;20055;-68
2023/01/26 10:15:07;;;;;;;12.07;5.18;;;16.50;53.60;;;;;;5095202;28;20031;-68
2023/01/26 10:17:40;;;;;;;19.25;6.10;;;16.50;53.60;;;;;;5103312;28;20035;-66
2023/01/26 10:20:23;;;;;;;15.10;6.28;;;16.60;53.60;;;;;;5103187;28;20028;-67
2023/01/26 10:22:52;;;;;;;17.42;6.53;;;16.50;53.40;;;;;;5086025;28;20091;-66
2023/01/26 10:25:33;;;;;;;17.00;4.88;;;16.60;53.40;;;;;;5091512;28;20630;-69
2023/01/26 10:28:11;;;;;;;12.65;5.72;;;16.60;53.40;;;;;;5093569;28;20024;-69
2023/01/26 10:30:39;;;;;;;24.15;12.98;;;16.60;53.60;;;;;;5082703;28;20036;-66
2023/01/26 10:33:19;;;;;;;268.40;155.73;;;16.60;53.70;;;;;;5102328;28;20062;-66
2023/01/26 10:35:46;;;;;;;189.98;104.60;;;16.70;53.80;;;;;;5094897;28;20039;-69
2023/01/26 10:38:34;;;;;;;82.90;49.75;;;16.70;54.30;;;;;;5085352;28;20024;-68
2023/01/26 10:41:02;;;;;;;110.22;58.05;;;15.50;44.20;;;;;;5100575;28;20035;-68
2023/01/26 10:43:30;;;;;;;122.65;67.97;;;15.80;54.10;;;;;;5102867;28;20024;-69
2023/01/26 10:45:56;;;;;;;96.72;56.35;;;16.10;54.90;;;;;;5101438;28;20046;-66
2023/01/26 10:48:25;;;;;;;115.65;65.47;;;16.30;55.00;;;;;;5102735;28;20028;-70
2023/01/26 10:50:52;;;;;;;106.15;60.05;;;16.40;54.80;;;;;;5102601;28;20044;-67
2023/01/26 10:53:28;;;;;;;116.25;62.88;;;16.50;54.70;;;;;;5102704;28;20024;-70
2023/01/26 10:56:04;;;;;;;107.57;56.03;;;16.60;54.60;;;;;;5099019;28;20050;-69
2023/01/26 10:58:39;;;;;;;117.45;62.22;;;16.60;54.50;;;;;;5091313;28;20224;-69
2023/01/26 11:01:11;;;;;;;100.03;53.47;;;16.70;54.60;;;;;;5098840;28;20043;-67
2023/01/26 11:03:40;;;;;;;108.38;59.13;;;16.80;54.60;;;;;;5102575;28;20020;-68
2023/01/26 11:06:11;;;;;;;;;;;16.80;54.70;;;;;;5101356;28;20024;-68
2023/01/26 11:08:38;;;;;;;90.50;50.95;;;16.80;54.90;;;;;;5102368;28;19908;-69
2023/01/26 11:11:09;;;;;;;97.82;53.45;;;16.80;55.00;;;;;;5101292;28;20042;-69
2023/01/26 11:13:35;;;;;;;88.90;49.38;;;16.80;55.00;;;;;;5095919;28;20055;-70
2023/01/26 11:16:22;;;;;;;85.72;48.47;;;16.90;55.10;;;;;;5084827;28;20389;-68
2023/01/26 11:19:06;;;;;;;81.47;43.25;;;16.90;55.10;;;;;;5088644;28;20031;-69
2023/01/26 11:21:36;;;;;;;76.75;47.25;;;16.80;54.90;;;;;;5091473;28;20298;-68
2023/01/26 11:24:10;;;;;;;83.03;45.60;;;16.90;55.10;;;;;;5095842;28;20324;-68
2023/01/26 11:26:59;;;;;;;80.95;43.92;;;16.90;55.10;;;;;;5098140;28;20149;-68
2023/01/26 11:29:48;;;;;;;73.95;41.92;;;16.90;55.10;;;;;;5102059;28;20043;-68
2023/01/26 11:32:26;;;;;;;69.13;40.97;;;16.90;55.10;;;;;;5069250;28;20028;-69
2023/01/26 11:35:26;;;;;;;70.30;39.63;;;16.90;55.20;;;;;;5102043;28;20099;-70
2023/01/26 11:38:16;;;;;;;73.15;38.35;;;16.90;55.20;;;;;;5101354;28;20043;-69
2023/01/26 11:41:03;;;;;;;71.25;39.78;;;16.90;55.10;;;;;;5101798;28;20031;-69
2023/01/26 11:43:47;;;;;;;61.47;36.05;;;17.00;55.10;;;;;;5093905;28;20028;-69
2023/01/26 11:46:24;;;;;;;73.32;38.03;;;16.90;55.00;;;;;;5099644;28;20220;-69
2023/01/26 11:49:10;;;;;;;70.35;37.03;;;17.00;55.10;;;;;;5116427;28;20045;-69
2023/01/26 11:52:11;;;;;;;65.65;37.25;;;16.90;55.20;;;;;;5120938;28;20016;-70
2023/01/26 11:55:00;;;;;;;62.10;35.85;;;17.00;55.20;;;;;;5081248;28;20037;-70
2023/01/26 11:57:53;;;;;;;65.85;36.15;;;17.00;55.10;;;;;;5079779;28;20287;-68
2023/01/26 12:00:29;;;;;;;66.50;36.67;;;17.10;55.10;;;;;;5081112;28;20028;-68
2023/01/26 12:03:02;;;;;;;63.03;35.28;;;17.10;55.10;;;;;;5081082;28;20070;-69
2023/01/26 12:05:41;;;;;;;61.10;34.75;;;17.10;55.00;;;;;;5098787;28;20028;-70
2023/01/26 12:08:18;;;;;;;;;;;17.10;55.10;;;;;;5101028;28;20055;-67
2023/01/26 12:11:26;;;;;;;57.57;33.70;;;17.10;55.10;;;;;;5101273;28;19920;-69
2023/01/26 12:13:58;;;;;;;51.35;32.08;;;17.10;55.10;;;;;;5089574;28;20257;-70
2023/01/26 12:16:34;;;;;;;64.40;34.63;;;17.10;55.10;;;;;;5085982;28;20578;-68
2023/01/26 12:19:30;;;;;;;56.20;32.63;;;17.20;55.10;;;;;;5078645;28;20035;-68
2023/01/26 12:22:04;;;;;;;62.03;33.60;;;17.20;55.10;;;;;;5078842;28;20040;-68
2023/01/26 12:24:44;;;;;;;66.55;33.35;;;17.20;55.20;;;;;;5078853;28;20016;-68
2023/01/26 12:27:28;;;;;;;53.70;31.00;;;17.20;55.00;;;;;;5079063;28;20032;-69
2023/01/26 12:30:21;;;;;;;52.83;31.00;;;17.20;55.10;;;;;;5078978;28;20029;-71
2023/01/26 12:32:47;;;;;;;55.20;32.92;;;17.10;55.20;;;;;;5076948;28;20028;-69
2023/01/26 12:35:14;;;;;;;60.72;32.80;;;17.20;55.20;;;;;;5080136;28;20097;-71
2023/01/26 12:37:48;;;;;;;58.70;31.98;;;17.20;55.20;;;;;;5078351;28;20021;-69
2023/01/26 12:40:35;;;;;;;54.65;32.08;;;17.20;55.20;;;;;;5080751;28;20028;-68
2023/01/26 12:43:15;;;;;;;52.55;31.77;;;17.20;55.20;;;;;;5078756;28;20101;-68
2023/01/26 12:45:44;;;;;;;53.92;31.13;;;17.20;55.80;;;;;;5080695;28;20028;-69
2023/01/26 12:48:19;;;;;;;50.03;29.88;;;17.20;55.20;;;;;;5079652;28;20020;-69
2023/01/26 12:51:02;;;;;;;50.88;29.80;;;17.20;55.30;;;;;;5080011;28;20200;-69
2023/01/26 12:53:48;;;;;;;48.40;28.83;;;17.20;55.30;;;;;;5085850;28;20020;-71
2023/01/26 12:56:27;;;;;;;49.88;29.60;;;17.20;55.40;;;;;;5098498;28;20393;-70
2023/01/26 12:58:55;;;;;;;62.13;29.85;;;17.20;55.60;;;;;;5092864;28;20031;-70
2023/01/26 13:01:27;;;;;;;53.92;29.42;;;17.20;55.60;;;;;;5100618;28;20034;-70
2023/01/26 13:03:57;;;;;;;49.03;29.73;;;17.20;55.40;;;;;;5100486;28;20024;-70
2023/01/26 13:06:27;;;;;;;48.85;28.73;;;17.20;55.50;;;;;;5100373;28;20216;-70
2023/01/26 13:09:23;;;;;;;46.80;28.42;;;17.20;55.50;;;;;;5100274;28;20109;-69
2023/01/26 13:11:50;;;;;;;49.05;28.75;;;17.20;55.50;;;;;;5089496;28;20052;-70
2023/01/26 13:14:29;;;;;;;52.80;29.52;;;17.30;55.60;;;;;;5077738;28;20271;-68
2023/01/26 13:16:57;;;;;;;44.13;27.88;;;17.30;55.40;;;;;;5080019;28;20208;-69
2023/01/26 13:19:41;;;;;;;54.50;30.15;;;17.30;55.40;;;;;;5079830;28;20043;-70
2023/01/26 13:22:24;;;;;;;45.38;27.95;;;17.40;55.40;;;;;;5080172;28;20029;-68
2023/01/26 13:25:30;;;;;;;44.53;26.23;;;17.30;55.30;;;;;;5079923;28;20051;-69
2023/01/26 13:28:11;;;;;;;46.67;26.48;;;17.40;55.40;;;;;;5071166;28;20108;-70
2023/01/26 13:30:46;;;;;;;41.10;26.40;;;17.40;55.40;;;;;;5088881;28;20238;-70
2023/01/26 13:33:15;;;;;;;50.83;28.00;;;17.40;55.50;;;;;;5090695;28;20025;-69
2023/01/26 13:35:42;;;;;;;48.15;27.42;;;17.40;56.00;;;;;;5096127;28;20296;-70
2023/01/26 13:38:55;;;;;;;46.17;27.33;;;17.30;55.40;;;;;;5094996;28;20039;-70
2023/01/26 13:41:21;;;;;;;45.42;25.52;;;17.20;55.60;;;;;;4994638;28;20258;-68
2023/01/26 13:44:12;;;;;;;41.85;25.85;;;17.20;55.60;;;;;;5080083;28;20036;-70